Time;durP1;ratioP1;P1;durP2;ratioP2;P2;SDS_P1;SDS_P2;PMS_P1;PMS_P2;Temp;Humidity;BMP_temperature;BMP_pressure;BME280_temperature;BME280_humidity;BME280_pressure;Samples;Min_cycle;Max_cycle;Signal;HPM_P1;HPM_P2
2023/01/22 00:02:06;;;;;;;24.05;14.95;;;3.90;99.90;;;;;;5053424;28;20247;-75
2023/01/22 00:04:31;;;;;;;18.92;12.32;;;3.90;99.90;;;;;;5071300;28;20546;-75
2023/01/22 00:06:57;;;;;;;15.80;11.30;;;3.90;99.90;;;;;;5053672;28;20242;-74
2023/01/22 00:09:23;;;;;;;15.47;11.63;;;3.90;99.90;;;;;;5069921;28;20638;-75
2023/01/22 00:11:49;;;;;;;21.07;14.67;;;3.90;99.90;;;;;;5052719;28;20577;-75
2023/01/22 00:14:15;;;;;;;16.52;12.32;;;4.00;99.90;;;;;;5071075;28;20271;-74
2023/01/22 00:16:42;;;;;;;14.20;10.50;;;4.00;99.90;;;;;;5036926;28;20172;-75
2023/01/22 00:19:08;;;;;;;14.77;10.63;;;4.00;99.90;;;;;;5053055;28;20184;-74
2023/01/22 00:21:34;;;;;;;13.47;9.80;;;4.00;99.90;;;;;;5070417;28;20557;-74
2023/01/22 00:24:00;;;;;;;16.40;11.82;;;4.10;99.90;;;;;;5071146;28;20636;-75
2023/01/22 00:26:27;;;;;;;15.40;10.02;;;4.00;99.90;;;;;;5071199;28;20168;-75
2023/01/22 00:28:53;;;;;;;16.85;12.52;;;4.10;99.90;;;;;;5069755;28;20216;-75
2023/01/22 00:31:19;;;;;;;15.57;11.47;;;4.10;99.90;;;;;;5068714;28;20165;-75
2023/01/22 00:33:46;;;;;;;15.20;11.05;;;4.10;99.90;;;;;;5071023;28;20705;-75
2023/01/22 00:36:20;;;;;;;14.00;9.98;;;4.10;99.90;;;;;;5052656;28;20207;-74
2023/01/22 00:38:48;;;;;;;14.85;11.23;;;4.10;99.90;;;;;;5053110;28;20540;-74
2023/01/22 00:41:14;;;;;;;13.20;9.40;;;4.10;99.90;;;;;;5069893;28;20267;-75
2023/01/22 00:43:40;;;;;;;14.25;11.90;;;4.10;99.90;;;;;;5052092;28;20287;-75
2023/01/22 00:46:07;;;;;;;18.05;11.90;;;4.10;99.90;;;;;;5052657;28;20180;-75
2023/01/22 00:48:35;;;;;;;15.98;11.30;;;4.10;99.90;;;;;;5053106;28;20224;-75
2023/01/22 00:51:01;;;;;;;16.17;11.13;;;4.10;99.90;;;;;;5070039;28;20173;-75
2023/01/22 00:53:27;;;;;;;15.07;11.40;;;4.10;99.90;;;;;;5052530;28;20258;-75
2023/01/22 00:56:00;;;;;;;11.57;9.20;;;4.10;99.90;;;;;;5073154;22;20644;-77
2023/01/22 00:58:28;;;;;;;16.23;12.43;;;4.10;99.90;;;;;;5032647;28;20188;-77
2023/01/22 01:00:54;;;;;;;14.23;11.98;;;4.10;99.90;;;;;;5032205;28;21419;-77
2023/01/22 01:03:29;;;;;;;14.40;11.00;;;4.10;99.90;;;;;;5015753;28;20184;-76
2023/01/22 01:06:13;;;;;;;18.02;13.73;;;4.20;99.90;;;;;;5015978;28;20611;-76
2023/01/22 01:08:41;;;;;;;16.90;11.73;;;4.10;99.90;;;;;;5015990;28;20213;-76
2023/01/22 01:11:16;;;;;;;18.63;14.75;;;4.10;99.90;;;;;;5031946;28;20165;-76
2023/01/22 01:13:42;;;;;;;18.20;13.32;;;4.10;99.90;;;;;;5032068;28;20219;-76
2023/01/22 01:16:16;;;;;;;17.45;12.75;;;4.10;99.90;;;;;;5050189;28;20192;-76
2023/01/22 01:18:44;;;;;;;17.75;12.73;;;4.00;99.90;;;;;;5050081;28;20208;-76
2023/01/22 01:21:11;;;;;;;17.17;12.05;;;4.00;99.90;;;;;;5031669;28;20184;-76
2023/01/22 01:23:37;;;;;;;16.63;12.32;;;4.00;99.90;;;;;;5032417;28;20714;-76
2023/01/22 01:26:09;;;;;;;14.23;11.10;;;4.00;99.90;;;;;;5049996;28;20232;-76
2023/01/22 01:28:38;;;;;;;16.25;12.25;;;4.00;99.90;;;;;;5031956;28;20211;-76
2023/01/22 01:31:06;;;;;;;15.25;11.30;;;3.90;99.90;;;;;;5015027;28;20224;-76
2023/01/22 01:33:31;;;;;;;18.65;12.63;;;3.90;99.90;;;;;;5031688;28;20779;-76
2023/01/22 01:36:03;;;;;;;20.80;15.20;;;3.90;99.90;;;;;;5015475;28;20223;-76
2023/01/22 01:38:30;;;;;;;18.83;13.07;;;3.90;99.90;;;;;;5031569;28;20181;-76
2023/01/22 01:40:56;;;;;;;16.35;12.10;;;3.90;99.90;;;;;;5014980;28;20208;-76
2023/01/22 01:43:22;;;;;;;16.30;12.98;;;3.90;99.90;;;;;;5049200;28;20169;-76
2023/01/22 01:45:48;;;;;;;16.92;12.35;;;3.90;99.90;;;;;;5049379;28;20543;-76
2023/01/22 01:48:34;;;;;;;15.77;12.57;;;3.90;99.90;;;;;;5014896;28;20201;-76
2023/01/22 01:51:14;;;;;;;19.48;13.40;;;3.90;99.90;;;;;;5031438;28;20249;-77
2023/01/22 01:53:41;;;;;;;15.30;12.00;;;3.80;99.90;;;;;;5030675;28;20231;-76
2023/01/22 01:56:14;;;;;;;23.02;13.20;;;3.80;99.90;;;;;;5048961;28;20196;-76
2023/01/22 01:58:42;;;;;;;17.80;9.98;;;3.80;99.90;;;;;;5049314;28;20509;-77
2023/01/22 02:01:12;;;;;;;17.70;13.63;;;3.80;99.90;;;;;;5047124;28;20176;-77
2023/01/22 02:03:39;;;;;;;17.77;12.35;;;3.80;99.90;;;;;;5039096;28;20199;-77
2023/01/22 02:06:13;;;;;;;19.15;13.73;;;3.70;99.90;;;;;;5030914;28;20725;-76
2023/01/22 02:08:41;;;;;;;18.65;13.85;;;3.80;99.90;;;;;;5034922;28;20211;-76
2023/01/22 02:11:07;;;;;;;17.42;12.18;;;3.70;99.90;;;;;;5033562;28;20172;-77
2023/01/22 02:13:36;;;;;;;22.00;15.38;;;3.70;99.90;;;;;;5051421;28;20173;-77
2023/01/22 02:16:04;;;;;;;17.48;13.05;;;3.70;99.90;;;;;;5034427;28;20237;-77
2023/01/22 02:18:30;;;;;;;15.70;12.38;;;3.70;99.90;;;;;;5034891;28;20180;-77
2023/01/22 02:21:03;;;;;;;20.70;15.70;;;3.70;99.90;;;;;;5034102;28;20615;-77
2023/01/22 02:23:30;;;;;;;20.23;14.93;;;3.70;99.90;;;;;;5051030;28;20184;-78
2023/01/22 02:25:57;;;;;;;21.25;15.35;;;3.70;99.90;;;;;;5050925;28;20671;-78
2023/01/22 02:28:23;;;;;;;17.85;12.88;;;3.70;99.90;;;;;;5051132;28;20212;-77
2023/01/22 02:30:52;;;;;;;19.25;14.30;;;3.70;99.90;;;;;;5033882;28;20172;-77
2023/01/22 02:33:18;;;;;;;17.40;13.75;;;3.70;99.90;;;;;;5034404;28;20168;-77
2023/01/22 02:35:44;;;;;;;18.67;13.80;;;3.70;99.90;;;;;;5034375;28;20186;-77
2023/01/22 02:38:10;;;;;;;22.17;15.70;;;3.60;99.90;;;;;;5051001;28;20176;-77
2023/01/22 02:40:47;;;;;;;18.90;13.83;;;3.70;99.90;;;;;;5033868;28;20559;-78
2023/01/22 02:43:14;;;;;;;20.45;15.20;;;3.60;99.90;;;;;;5033999;28;20180;-77
2023/01/22 02:45:39;;;;;;;19.70;14.30;;;3.60;99.90;;;;;;5034212;28;20180;-78
2023/01/22 02:48:05;;;;;;;17.50;12.73;;;3.60;99.90;;;;;;5050780;28;21388;-76
2023/01/22 02:50:33;;;;;;;20.17;14.85;;;3.60;99.90;;;;;;5050498;28;20212;-76
2023/01/22 02:52:59;;;;;;;17.00;13.43;;;3.60;99.90;;;;;;5033839;28;20199;-77
2023/01/22 02:55:25;;;;;;;16.90;13.80;;;3.60;99.90;;;;;;5018177;28;20571;-76
2023/01/22 02:57:51;;;;;;;16.77;11.15;;;3.60;99.90;;;;;;5033829;28;20211;-76
2023/01/22 03:00:17;;;;;;;19.70;13.23;;;3.60;99.90;;;;;;5033971;28;20696;-76
2023/01/22 03:02:43;;;;;;;19.33;14.07;;;3.60;99.90;;;;;;5033979;28;20176;-76
2023/01/22 03:05:09;;;;;;;18.23;13.97;;;3.60;99.90;;;;;;5018330;28;20655;-76
2023/01/22 03:07:41;;;;;;;14.98;13.20;;;3.60;99.90;;;;;;5021207;28;20192;-77
2023/01/22 03:10:17;;;;;;;19.65;14.75;;;3.60;99.90;;;;;;5054432;28;20172;-77
2023/01/22 03:21:20;;;;;;;16.10;12.90;;;3.70;99.90;;;;;;5037580;28;20176;-78
2023/01/22 03:23:51;;;;;;;17.58;12.13;;;3.70;99.90;;;;;;5054467;28;20202;-78
2023/01/22 03:26:18;;;;;;;19.42;15.75;;;3.70;99.90;;;;;;5037596;28;20689;-78
2023/01/22 03:28:45;;;;;;;18.77;14.32;;;3.70;99.90;;;;;;5037382;28;20231;-78
2023/01/22 03:31:12;;;;;;;17.88;13.45;;;3.60;99.90;;;;;;5020683;28;20546;-76
2023/01/22 03:33:38;;;;;;;18.90;14.38;;;3.60;99.90;;;;;;5037549;28;20176;-77
2023/01/22 03:36:09;;;;;;;18.27;13.55;;;3.60;99.90;;;;;;5053955;28;20211;-77
2023/01/22 03:38:37;;;;;;;18.00;14.02;;;3.60;99.90;;;;;;5054082;28;20203;-77
2023/01/22 03:41:07;;;;;;;22.17;14.98;;;3.60;99.90;;;;;;5036979;28;20176;-76
2023/01/22 03:43:33;;;;;;;18.33;14.45;;;3.50;99.90;;;;;;5054233;28;20580;-78
2023/01/22 03:46:11;;;;;;;17.92;13.55;;;3.50;99.90;;;;;;5068195;28;20916;-77
2023/01/22 03:48:41;;;;;;;17.60;12.30;;;3.50;99.90;;;;;;5017613;28;20676;-77
2023/01/22 03:51:10;;;;;;;17.65;13.40;;;3.50;99.90;;;;;;5033107;28;20562;-77
2023/01/22 03:53:36;;;;;;;20.80;13.88;;;3.50;99.90;;;;;;5052042;28;20168;-78
2023/01/22 03:56:06;;;;;;;17.40;13.68;;;3.60;99.90;;;;;;5051588;28;20557;-78
2023/01/22 03:58:34;;;;;;;17.17;12.57;;;3.60;99.90;;;;;;5033946;28;20238;-79
2023/01/22 04:01:05;;;;;;;18.45;14.95;;;3.60;99.90;;;;;;5033089;28;20173;-77
2023/01/22 04:03:32;;;;;;;18.08;13.48;;;3.60;99.90;;;;;;5033953;28;20795;-78
2023/01/22 04:05:59;;;;;;;22.58;13.73;;;3.60;99.90;;;;;;5051122;28;20221;-78
2023/01/22 04:08:29;;;;;;;19.52;14.43;;;3.60;99.90;;;;;;5000936;28;20200;-77
2023/01/22 04:10:56;;;;;;;19.20;13.60;;;3.60;99.90;;;;;;5033427;28;20539;-77
2023/01/22 04:13:23;;;;;;;16.30;13.20;;;3.60;99.90;;;;;;5016984;28;20231;-78
2023/01/22 04:15:51;;;;;;;20.60;14.27;;;3.50;99.90;;;;;;5033424;28;20173;-77
2023/01/22 04:18:37;;;;;;;16.38;11.88;;;3.60;99.90;;;;;;5032338;28;20188;-78
2023/01/22 04:21:17;;;;;;;19.60;15.23;;;3.60;99.90;;;;;;5032565;28;20169;-78
2023/01/22 04:23:51;;;;;;;17.50;14.00;;;3.60;99.90;;;;;;5033725;28;20181;-78
2023/01/22 04:26:17;;;;;;;19.80;12.80;;;3.60;99.90;;;;;;5000388;28;20192;-78
2023/01/22 04:28:42;;;;;;;15.73;12.13;;;3.60;99.90;;;;;;5033386;28;20619;-78
2023/01/22 04:31:09;;;;;;;16.05;11.57;;;3.60;99.90;;;;;;5032474;28;20685;-78
2023/01/22 04:33:42;;;;;;;14.75;12.13;;;3.60;99.90;;;;;;5017076;28;20597;-79
2023/01/22 04:36:12;;;;;;;17.05;12.35;;;3.60;99.90;;;;;;5033168;28;20200;-77
2023/01/22 04:38:38;;;;;;;16.20;13.07;;;3.70;99.90;;;;;;5016539;28;20177;-78
2023/01/22 04:41:04;;;;;;;15.63;12.63;;;3.70;99.90;;;;;;5016507;28;20173;-77
2023/01/22 04:43:30;;;;;;;13.13;11.23;;;3.70;99.90;;;;;;5016406;28;20699;-77
2023/01/22 04:45:56;;;;;;;16.90;12.60;;;3.70;99.90;;;;;;5033059;28;20617;-77
2023/01/22 04:48:27;;;;;;;14.57;11.85;;;3.70;99.90;;;;;;5017031;28;20734;-77
2023/01/22 04:50:53;;;;;;;19.30;12.47;;;3.70;99.90;;;;;;5015959;28;20208;-78
2023/01/22 04:53:18;;;;;;;14.10;10.50;;;3.70;99.90;;;;;;5016053;28;20161;-78
2023/01/22 04:55:45;;;;;;;15.57;12.63;;;3.70;99.90;;;;;;5032676;28;20179;-78
2023/01/22 04:58:12;;;;;;;14.15;11.40;;;3.70;99.90;;;;;;5016294;28;20181;-78
2023/01/22 05:00:39;;;;;;;11.10;9.43;;;3.70;99.90;;;;;;5032273;28;20176;-78
2023/01/22 05:03:05;;;;;;;14.48;10.23;;;3.80;99.90;;;;;;4999277;28;20646;-78
2023/01/22 05:05:32;;;;;;;12.77;10.57;;;3.80;99.90;;;;;;5032858;28;20173;-78
2023/01/22 05:07:59;;;;;;;16.17;12.80;;;3.80;99.90;;;;;;5032812;28;20259;-77
2023/01/22 05:10:25;;;;;;;20.35;15.35;;;3.80;99.90;;;;;;4999439;28;20184;-77
2023/01/22 05:12:52;;;;;;;14.93;11.90;;;3.90;99.90;;;;;;5049058;28;20641;-77
2023/01/22 05:15:18;;;;;;;13.23;10.60;;;3.80;99.90;;;;;;5032241;28;20174;-78
2023/01/22 05:17:44;;;;;;;16.55;12.15;;;3.80;99.90;;;;;;5032739;28;20189;-77
2023/01/22 05:20:10;;;;;;;15.50;12.77;;;3.80;99.90;;;;;;5032051;28;20168;-76
2023/01/22 05:22:36;;;;;;;16.38;11.82;;;3.80;99.90;;;;;;5016672;28;20572;-77
2023/01/22 05:25:02;;;;;;;15.27;11.03;;;3.80;99.90;;;;;;5048982;28;20180;-77
2023/01/22 05:27:32;;;;;;;13.65;11.73;;;3.80;99.90;;;;;;5032485;28;20730;-78
2023/01/22 05:30:12;;;;;;;13.15;11.00;;;3.80;99.90;;;;;;5031354;28;20632;-78
2023/01/22 05:33:13;;;;;;;10.48;9.43;;;3.80;99.90;;;;;;4952132;28;20362;-79
2023/01/22 05:35:38;;;;;;;12.97;11.60;;;3.80;99.90;;;;;;5015290;28;20271;-78
2023/01/22 05:38:04;;;;;;;14.20;11.40;;;3.80;99.90;;;;;;5015625;28;20203;-78
2023/01/22 05:40:30;;;;;;;12.05;9.70;;;3.80;99.90;;;;;;5031413;28;20176;-78
2023/01/22 05:42:56;;;;;;;11.23;9.87;;;3.80;99.90;;;;;;5031679;28;20176;-78
2023/01/22 05:45:23;;;;;;;14.95;11.35;;;3.80;99.90;;;;;;5031651;28;20181;-78
2023/01/22 05:48:14;;;;;;;11.00;9.63;;;3.80;99.90;;;;;;5031521;28;20213;-77
2023/01/22 05:50:50;;;;;;;12.52;10.35;;;3.80;99.90;;;;;;5031175;28;20180;-78
2023/01/22 05:53:16;;;;;;;10.70;9.40;;;3.80;99.90;;;;;;5031522;28;20629;-76
2023/01/22 05:55:42;;;;;;;9.67;8.60;;;3.80;99.90;;;;;;5031471;28;20514;-77
2023/01/22 05:58:08;;;;;;;13.87;11.10;;;3.80;99.90;;;;;;5031495;28;20572;-77
2023/01/22 06:00:34;;;;;;;12.40;9.95;;;3.80;99.90;;;;;;5030953;28;20169;-77
2023/01/22 06:03:03;;;;;;;12.00;9.93;;;3.80;99.90;;;;;;5031276;28;20181;-77
2023/01/22 06:05:37;;;;;;;12.30;11.02;;;3.80;99.90;;;;;;5015537;28;20211;-77
2023/01/22 06:08:06;;;;;;;15.27;11.70;;;3.80;99.90;;;;;;5048448;28;20200;-77
2023/01/22 06:10:39;;;;;;;12.30;11.05;;;3.80;99.90;;;;;;5048153;28;20547;-77
2023/01/22 06:13:05;;;;;;;10.43;9.20;;;3.80;99.90;;;;;;5014746;28;20267;-77
2023/01/22 06:15:32;;;;;;;11.80;9.88;;;3.80;99.90;;;;;;5031595;28;20284;-77
2023/01/22 06:18:10;;;;;;;13.10;10.50;;;3.90;99.90;;;;;;5031221;28;20181;-77
2023/01/22 06:20:37;;;;;;;10.88;9.75;;;3.90;99.90;;;;;;5029130;28;20177;-78
2023/01/22 06:23:02;;;;;;;11.47;9.00;;;3.90;99.90;;;;;;5062650;28;20718;-77
2023/01/22 06:25:30;;;;;;;12.13;9.82;;;3.90;99.90;;;;;;5043012;28;20543;-78
2023/01/22 06:28:10;;;;;;;10.63;9.38;;;3.90;99.90;;;;;;5043653;28;20207;-77
2023/01/22 06:30:37;;;;;;;15.20;11.20;;;3.90;99.90;;;;;;5044813;28;20176;-77
2023/01/22 06:33:03;;;;;;;14.70;12.10;;;3.90;99.90;;;;;;5046530;28;20263;-78
2023/01/22 06:35:28;;;;;;;10.60;9.50;;;3.90;99.90;;;;;;5069196;28;20411;-78
2023/01/22 06:37:55;;;;;;;11.07;9.88;;;3.90;99.90;;;;;;5017804;28;20237;-78
2023/01/22 06:40:22;;;;;;;10.65;9.40;;;3.90;99.90;;;;;;5034949;28;20175;-78
2023/01/22 06:42:49;;;;;;;11.15;9.70;;;3.90;99.90;;;;;;5038515;28;20176;-78
2023/01/22 06:45:16;;;;;;;12.02;10.85;;;3.90;99.90;;;;;;5038522;28;20187;-77
2023/01/22 06:47:46;;;;;;;10.88;9.65;;;3.90;99.90;;;;;;5038891;28;20200;-77
2023/01/22 06:50:12;;;;;;;10.75;9.63;;;4.00;99.90;;;;;;5038186;28;20569;-78
2023/01/22 06:52:39;;;;;;;11.88;10.13;;;4.00;99.90;;;;;;5018153;28;20166;-77
2023/01/22 06:55:07;;;;;;;11.75;10.35;;;3.90;99.90;;;;;;5014949;28;20185;-78
2023/01/22 06:57:36;;;;;;;11.13;9.95;;;4.00;99.90;;;;;;5015349;28;20212;-78
2023/01/22 07:00:04;;;;;;;9.80;8.80;;;4.00;99.90;;;;;;5032533;28;20630;-79
2023/01/22 07:02:30;;;;;;;12.40;9.75;;;4.00;99.90;;;;;;5048411;28;20173;-79
2023/01/22 07:04:56;;;;;;;9.63;8.65;;;4.00;99.90;;;;;;5041987;28;20164;-79
2023/01/22 07:07:22;;;;;;;9.70;8.35;;;4.00;99.90;;;;;;5064065;28;20200;-79
2023/01/22 07:09:47;;;;;;;10.30;9.17;;;4.00;99.90;;;;;;5054224;28;20603;-79
2023/01/22 07:12:13;;;;;;;13.37;10.63;;;4.00;99.90;;;;;;5037749;28;21152;-79
2023/01/22 07:14:39;;;;;;;11.10;8.33;;;4.00;99.90;;;;;;5072396;28;20175;-79
2023/01/22 07:17:04;;;;;;;10.57;8.13;;;4.00;99.90;;;;;;5036065;28;20212;-79
2023/01/22 07:19:30;;;;;;;12.30;10.33;;;4.00;99.90;;;;;;5048187;28;20214;-79
2023/01/22 07:21:56;;;;;;;11.70;8.20;;;4.00;99.90;;;;;;5072570;28;20267;-78
2023/01/22 07:24:22;;;;;;;10.87;9.77;;;4.00;99.90;;;;;;5070253;28;20668;-78
2023/01/22 07:26:48;;;;;;;10.63;9.27;;;4.00;99.90;;;;;;5019703;28;20741;-79
2023/01/22 07:29:14;;;;;;;10.77;9.48;;;3.90;99.90;;;;;;5042713;28;20212;-80
2023/01/22 07:31:39;;;;;;;8.97;8.07;;;4.00;99.90;;;;;;5073484;28;20760;-80
2023/01/22 07:34:06;;;;;;;10.33;8.80;;;4.00;99.90;;;;;;5030158;28;20248;-80
2023/01/22 07:36:32;;;;;;;11.63;9.68;;;4.00;99.90;;;;;;5049763;28;20548;-80
2023/01/22 07:38:57;;;;;;;13.37;10.50;;;4.00;99.90;;;;;;5050065;28;20245;-79
2023/01/22 07:41:23;;;;;;;10.73;9.13;;;4.00;99.90;;;;;;5054108;28;20545;-79
2023/01/22 07:43:49;;;;;;;12.37;10.33;;;4.00;99.90;;;;;;5054427;28;20177;-79
2023/01/22 07:46:15;;;;;;;11.20;9.03;;;4.00;99.90;;;;;;5072484;28;20316;-79
2023/01/22 07:48:41;;;;;;;11.13;9.10;;;4.00;99.90;;;;;;5049416;28;20637;-79
2023/01/22 07:51:07;;;;;;;11.57;10.00;;;3.90;99.90;;;;;;5050082;28;20568;-79
2023/01/22 07:53:34;;;;;;;11.77;10.30;;;4.00;99.90;;;;;;5033301;28;20954;-79
2023/01/22 07:56:04;;;;;;;10.98;9.50;;;3.90;99.90;;;;;;5035052;28;20304;-78
2023/01/22 07:58:30;;;;;;;10.57;9.23;;;4.00;99.90;;;;;;5052063;28;20196;-79
2023/01/22 08:00:56;;;;;;;11.90;10.17;;;4.00;99.90;;;;;;5052246;28;20214;-79
2023/01/22 08:03:21;;;;;;;13.10;10.30;;;3.90;99.90;;;;;;5053445;28;20602;-78
2023/01/22 08:05:47;;;;;;;9.60;8.10;;;4.00;99.90;;;;;;5054456;28;20231;-78
2023/01/22 08:08:21;;;;;;;10.37;9.10;;;3.90;99.90;;;;;;5059007;28;20204;-80
2023/01/22 08:10:47;;;;;;;9.95;8.57;;;3.90;99.90;;;;;;5071223;28;20180;-78
2023/01/22 08:13:13;;;;;;;9.73;8.60;;;4.00;99.90;;;;;;5070759;28;20164;-79
2023/01/22 08:15:42;;;;;;;12.13;10.27;;;4.00;99.90;;;;;;5071401;28;20172;-79
2023/01/22 08:18:12;;;;;;;11.65;9.57;;;4.00;99.90;;;;;;5071513;28;20173;-78
2023/01/22 08:20:38;;;;;;;11.25;9.00;;;4.00;99.90;;;;;;5063273;28;20177;-79
2023/01/22 08:23:04;;;;;;;11.73;9.68;;;4.00;99.90;;;;;;5050000;28;20200;-80
2023/01/22 08:25:29;;;;;;;10.90;9.60;;;4.00;99.90;;;;;;5051786;28;20216;-80
2023/01/22 08:27:55;;;;;;;10.10;8.70;;;4.00;99.90;;;;;;5050003;28;20201;-83
2023/01/22 08:30:21;;;;;;;10.50;9.30;;;4.00;99.90;;;;;;5044346;28;20200;-79
2023/01/22 08:32:49;;;;;;;8.90;8.00;;;4.00;99.90;;;;;;5045666;28;20211;-80
2023/01/22 08:35:14;;;;;;;9.68;7.97;;;4.00;99.90;;;;;;5039425;28;20165;-80
2023/01/22 08:37:42;;;;;;;12.63;11.33;;;4.00;99.90;;;;;;5063976;28;20780;-79
2023/01/22 08:40:09;;;;;;;12.40;9.48;;;4.10;99.90;;;;;;5055022;28;20180;-80
2023/01/22 08:42:35;;;;;;;10.82;9.73;;;4.10;99.90;;;;;;5030005;28;20166;-80
2023/01/22 08:45:01;;;;;;;9.07;8.13;;;4.10;99.90;;;;;;5028770;28;20169;-80
2023/01/22 08:47:26;;;;;;;9.40;7.97;;;4.10;99.90;;;;;;4996227;28;20193;-80
2023/01/22 08:49:52;;;;;;;9.57;8.57;;;4.10;99.90;;;;;;5028627;28;20280;-80
2023/01/22 08:52:18;;;;;;;10.00;8.77;;;4.20;99.90;;;;;;5041005;28;20271;-80
2023/01/22 08:54:44;;;;;;;10.20;9.00;;;4.20;99.90;;;;;;5057939;28;20941;-80
2023/01/22 08:57:09;;;;;;;9.00;8.00;;;4.30;99.90;;;;;;5044368;28;20211;-80
2023/01/22 08:59:35;;;;;;;7.37;6.40;;;4.30;99.90;;;;;;5052978;28;20204;-80
2023/01/22 09:02:01;;;;;;;10.40;8.40;;;4.30;99.90;;;;;;5052360;28;20757;-80
2023/01/22 09:04:27;;;;;;;8.23;7.43;;;4.30;99.90;;;;;;5070710;28;20184;-80
2023/01/22 09:06:53;;;;;;;9.40;7.15;;;4.40;99.90;;;;;;5048022;28;20196;-80
2023/01/22 09:09:19;;;;;;;12.90;10.77;;;4.40;99.90;;;;;;5062553;28;20211;-80
2023/01/22 09:11:45;;;;;;;10.63;9.53;;;4.40;99.90;;;;;;5068542;28;20173;-79
2023/01/22 09:14:11;;;;;;;9.45;8.55;;;4.40;99.90;;;;;;5044030;28;20172;-79
2023/01/22 09:16:38;;;;;;;10.93;9.70;;;4.40;99.90;;;;;;5081513;28;20192;-80
2023/01/22 09:19:05;;;;;;;8.48;7.55;;;4.40;99.90;;;;;;5063471;28;20195;-80
2023/01/22 09:21:32;;;;;;;9.23;8.18;;;4.40;99.90;;;;;;5079195;28;20176;-80
2023/01/22 09:23:59;;;;;;;9.45;7.57;;;4.40;99.90;;;;;;5079398;28;20633;-80
2023/01/22 09:26:25;;;;;;;8.20;7.40;;;4.40;99.90;;;;;;5075585;28;20196;-81
2023/01/22 09:28:50;;;;;;;9.40;8.48;;;4.40;99.90;;;;;;5071421;28;20188;-80
2023/01/22 09:31:16;;;;;;;10.03;9.00;;;4.40;99.90;;;;;;5038752;28;20226;-81
2023/01/22 09:33:42;;;;;;;9.07;8.02;;;4.40;99.90;;;;;;5066491;28;20536;-81
2023/01/22 09:36:15;;;;;;;8.57;7.13;;;4.40;99.90;;;;;;5054368;28;20195;-80
2023/01/22 09:38:43;;;;;;;10.77;8.77;;;4.40;99.90;;;;;;5050472;28;20889;-80
2023/01/22 09:41:27;;;;;;;9.63;8.48;;;4.40;99.90;;;;;;5048240;28;20660;-78
2023/01/22 09:43:58;;;;;;;8.73;7.80;;;4.40;99.90;;;;;;5036846;28;20172;-80
2023/01/22 09:46:39;;;;;;;9.32;8.40;;;4.40;99.90;;;;;;5036738;28;20277;-80
2023/01/22 09:49:30;;;;;;;9.80;8.75;;;4.30;99.90;;;;;;5072342;28;20202;-80
2023/01/22 09:51:59;;;;;;;10.10;8.65;;;4.30;99.90;;;;;;5019790;28;20543;-79
2023/01/22 09:54:27;;;;;;;8.30;6.88;;;4.30;99.90;;;;;;5067147;28;20526;-81
2023/01/22 09:57:02;;;;;;;8.77;7.75;;;4.30;99.90;;;;;;5029396;28;20228;-82
2023/01/22 09:59:49;;;;;;;8.25;7.38;;;4.30;99.90;;;;;;5060224;28;20659;-79
2023/01/22 10:02:30;;;;;;;9.50;8.52;;;4.40;99.90;;;;;;5053029;28;20181;-81
2023/01/22 10:05:02;;;;;;;9.20;8.13;;;4.40;99.90;;;;;;5049879;28;20256;-82
2023/01/22 10:07:40;;;;;;;8.80;7.50;;;4.50;99.90;;;;;;5053027;28;20247;-81
2023/01/22 10:10:23;;;;;;;8.18;7.47;;;4.50;99.90;;;;;;5034203;28;20175;-81
2023/01/22 10:13:20;;;;;;;9.50;7.40;;;4.60;99.90;;;;;;5034092;28;20176;-80
2023/01/22 10:15:52;;;;;;;8.07;6.43;;;4.70;99.90;;;;;;5033314;28;20181;-78
2023/01/22 10:18:52;;;;;;;7.90;7.13;;;4.80;99.90;;;;;;5049870;28;20881;-79
2023/01/22 10:21:28;;;;;;;7.85;7.05;;;4.90;99.90;;;;;;5053315;28;20181;-80
2023/01/22 10:23:55;;;;;;;7.93;7.10;;;5.00;99.90;;;;;;5021872;28;20176;-80
2023/01/22 10:26:37;;;;;;;8.60;7.63;;;5.00;99.90;;;;;;5030927;28;20207;-80
2023/01/22 10:29:22;;;;;;;7.97;6.65;;;5.10;99.90;;;;;;5036543;28;20197;-80
2023/01/22 10:31:57;;;;;;;7.90;6.85;;;5.10;99.90;;;;;;5050959;28;20200;-80
2023/01/22 10:34:35;;;;;;;7.43;6.68;;;5.20;99.90;;;;;;5052023;28;20173;-80
2023/01/22 10:37:14;;;;;;;10.35;8.20;;;5.20;99.90;;;;;;5033981;28;20189;-79
2023/01/22 10:39:44;;;;;;;7.68;6.93;;;5.20;99.90;;;;;;5033409;28;20172;-79
2023/01/22 10:42:17;;;;;;;7.13;6.43;;;5.20;99.90;;;;;;5024039;28;20185;-79
2023/01/22 10:44:43;;;;;;;7.60;6.80;;;5.30;99.90;;;;;;5049379;28;20165;-79
2023/01/22 10:47:19;;;;;;;7.63;6.83;;;5.30;99.90;;;;;;5032178;28;20189;-80
2023/01/22 10:49:46;;;;;;;8.00;6.78;;;5.30;99.90;;;;;;5049284;28;20211;-79
2023/01/22 10:52:23;;;;;;;7.78;6.15;;;5.30;99.90;;;;;;5050406;28;20200;-79
2023/01/22 10:54:56;;;;;;;8.45;7.47;;;5.40;99.90;;;;;;5034240;28;20168;-79
2023/01/22 10:57:27;;;;;;;7.80;7.00;;;5.40;99.90;;;;;;5016029;28;20204;-80
2023/01/22 11:00:05;;;;;;;8.88;7.97;;;5.40;99.90;;;;;;5016204;28;20252;-79
2023/01/22 11:02:34;;;;;;;10.50;9.02;;;5.40;99.90;;;;;;5032623;28;20176;-80
2023/01/22 11:05:29;;;;;;;8.95;8.15;;;5.40;99.90;;;;;;5033869;28;20169;-80
2023/01/22 11:08:01;;;;;;;10.00;9.00;;;5.40;99.90;;;;;;5029884;28;20260;-80
2023/01/22 11:10:38;;;;;;;9.00;8.10;;;5.40;99.90;;;;;;5050224;28;20185;-80
2023/01/22 11:13:16;;;;;;;7.43;6.65;;;5.40;99.90;;;;;;5050968;28;20181;-80
2023/01/22 11:16:02;;;;;;;8.52;7.35;;;5.40;99.90;;;;;;5054986;28;20173;-80
2023/01/22 11:18:37;;;;;;;9.05;8.10;;;5.40;99.90;;;;;;5036038;28;20647;-80
2023/01/22 11:21:15;;;;;;;10.50;8.50;;;5.50;99.90;;;;;;5070618;28;20179;-81
2023/01/22 11:24:01;;;;;;;9.25;8.25;;;5.50;99.90;;;;;;5051509;28;20197;-80
2023/01/22 11:26:56;;;;;;;10.43;9.23;;;5.50;99.90;;;;;;5030743;28;20276;-81
2023/01/22 11:29:36;;;;;;;10.00;8.30;;;5.50;99.90;;;;;;5031741;28;20677;-81
2023/01/22 11:32:04;;;;;;;11.07;8.55;;;5.50;99.90;;;;;;5030159;28;20166;-82
2023/01/22 11:34:40;;;;;;;9.02;7.85;;;5.50;99.90;;;;;;5032916;28;20180;-80
2023/01/22 11:37:41;;;;;;;8.68;7.78;;;5.50;99.90;;;;;;5032488;28;20197;-80
2023/01/22 11:40:18;;;;;;;9.68;8.35;;;5.50;99.90;;;;;;5003863;28;20177;-81
2023/01/22 11:43:17;;;;;;;9.02;7.90;;;5.50;99.90;;;;;;5031218;28;20260;-80
2023/01/22 11:46:20;;;;;;;10.00;8.85;;;5.50;99.90;;;;;;5030885;28;20185;-81
2023/01/22 11:48:49;;;;;;;9.15;8.25;;;5.50;99.90;;;;;;5031045;28;20263;-81
2023/01/22 11:51:21;;;;;;;9.70;8.55;;;5.50;99.90;;;;;;4997596;28;20212;-81
2023/01/22 11:54:33;;;;;;;8.18;7.38;;;5.50;99.90;;;;;;5033088;28;20166;-81
2023/01/22 11:57:21;;;;;;;8.60;7.68;;;5.50;99.90;;;;;;4972326;28;20273;-80
2023/01/22 12:00:20;;;;;;;8.75;7.50;;;5.50;99.90;;;;;;5058813;28;20172;-80
2023/01/22 12:03:15;;;;;;;8.52;7.70;;;5.50;99.90;;;;;;5036227;28;20168;-80
2023/01/22 12:06:11;;;;;;;10.82;8.10;;;5.60;99.90;;;;;;5066588;28;20188;-80
2023/01/22 12:08:40;;;;;;;11.15;9.23;;;5.60;99.90;;;;;;5036712;28;20204;-81
2023/01/22 12:11:14;;;;;;;10.27;9.05;;;5.60;99.90;;;;;;5045749;28;20177;-80
2023/01/22 12:13:52;;;;;;;10.25;9.15;;;5.60;99.90;;;;;;5017895;28;20172;-80
2023/01/22 12:16:30;;;;;;;10.25;9.10;;;5.60;99.90;;;;;;5032025;28;20209;-79
2023/01/22 12:19:07;;;;;;;11.73;10.10;;;5.60;99.90;;;;;;5053843;28;20314;-81
2023/01/22 12:21:48;;;;;;;11.70;10.30;;;5.50;99.90;;;;;;5034598;28;20177;-79
2023/01/22 12:24:28;;;;;;;9.50;8.45;;;5.50;99.90;;;;;;5036438;28;20173;-79
2023/01/22 12:27:02;;;;;;;11.05;9.30;;;5.50;99.90;;;;;;5051765;28;20669;-79
2023/01/22 12:29:43;;;;;;;14.38;11.45;;;5.50;99.90;;;;;;5035809;28;20200;-79
2023/01/22 12:32:14;;;;;;;13.23;9.88;;;5.50;99.90;;;;;;5034975;28;20169;-79
2023/01/22 12:34:47;;;;;;;12.65;11.07;;;5.50;99.90;;;;;;5019081;28;20687;-80
2023/01/22 12:37:20;;;;;;;13.23;11.13;;;5.50;99.90;;;;;;5034855;28;20201;-79
2023/01/22 12:40:14;;;;;;;14.75;11.25;;;5.50;99.90;;;;;;5034461;28;20556;-80
2023/01/22 12:42:50;;;;;;;12.98;10.77;;;5.50;99.90;;;;;;5041070;28;20197;-80
2023/01/22 12:45:26;;;;;;;11.23;10.02;;;5.50;99.90;;;;;;5034985;28;20172;-80
2023/01/22 12:48:01;;;;;;;10.30;9.20;;;5.50;99.90;;;;;;5034577;28;20234;-80
2023/01/22 12:50:29;;;;;;;13.73;12.32;;;5.50;99.90;;;;;;5051416;28;20196;-80
2023/01/22 12:53:23;;;;;;;11.85;10.45;;;5.40;99.90;;;;;;5034685;28;20184;-80
2023/01/22 12:56:01;;;;;;;11.57;10.40;;;5.40;99.90;;;;;;5018268;28;20660;-80
2023/01/22 12:58:29;;;;;;;10.15;8.95;;;5.40;99.90;;;;;;5052804;28;20172;-81
2023/01/22 13:01:10;;;;;;;12.05;10.85;;;5.50;99.90;;;;;;5052546;28;20632;-80
2023/01/22 13:03:38;;;;;;;10.40;8.93;;;5.40;99.90;;;;;;5035002;28;20185;-80
2023/01/22 13:06:18;;;;;;;10.38;9.20;;;5.40;99.90;;;;;;5035104;28;20215;-80
2023/01/22 13:08:44;;;;;;;10.68;9.57;;;5.50;99.90;;;;;;5055496;28;20211;-80
2023/01/22 13:11:13;;;;;;;10.00;9.00;;;5.50;99.90;;;;;;5053561;28;20177;-79